Aviation Digital Data Service (ADDS)

Output produced by METARs form (0905 UTC 30 August 2016)
found at http://aviationweather.gov/adds/metars/
 
KBGR 300533Z 3006/3106 29004KT P6SM SKC 
     FM301700 26008KT P6SM BKN120 
     FM301800 22004KT P6SM BKN250